createdAt,value
2023-03-03T00:01:58.008Z,100.00
2023-03-03T00:04:25.584Z,100.00
2023-03-03T00:06:53.056Z,100.00
2023-03-03T00:09:20.526Z,100.00
2023-03-03T00:11:56.533Z,100.00
2023-03-03T00:14:33.121Z,100.00
2023-03-03T00:17:02.583Z,100.00
2023-03-03T00:19:41.696Z,100.00
2023-03-03T00:22:24.496Z,100.00
2023-03-03T00:24:52.470Z,100.00
2023-03-03T00:27:36.189Z,100.00
2023-03-03T00:30:07.237Z,100.00
2023-03-03T00:32:50.820Z,100.00
2023-03-03T00:35:39.643Z,100.00
2023-03-03T00:38:18.589Z,100.00
2023-03-03T00:40:49.541Z,100.00
2023-03-03T00:43:37.260Z,100.00
2023-03-03T00:46:04.968Z,100.00
2023-03-03T00:48:44.586Z,100.00
2023-03-03T00:51:23.007Z,100.00
2023-03-03T00:53:51.863Z,100.00
2023-03-03T00:56:19.336Z,100.00
2023-03-03T00:58:48.217Z,100.00
2023-03-03T01:01:21.656Z,100.00
2023-03-03T01:03:52.585Z,100.00
2023-03-03T01:06:20.044Z,100.00
2023-03-03T01:08:47.566Z,100.00
2023-03-03T01:11:22.128Z,100.00
2023-03-03T01:13:51.960Z,100.00
2023-03-03T01:16:20.426Z,100.00
2023-03-03T01:18:47.938Z,100.00
2023-03-03T01:21:18.206Z,100.00
2023-03-03T01:23:45.647Z,100.00
2023-03-03T01:26:13.235Z,100.00
2023-03-03T01:28:40.886Z,100.00
2023-03-03T01:31:08.758Z,100.00
2023-03-03T01:33:37.408Z,100.00
2023-03-03T01:36:05.683Z,100.00
2023-03-03T01:38:36.908Z,100.00
2023-03-03T01:41:05.008Z,100.00
2023-03-03T01:43:33.918Z,100.00
2023-03-03T01:46:01.319Z,100.00
2023-03-03T01:48:32.989Z,100.00
2023-03-03T01:51:24.405Z,100.00
2023-03-03T01:54:06.164Z,100.00
2023-03-03T01:56:33.784Z,100.00
2023-03-03T01:59:07.906Z,100.00
2023-03-03T02:01:38.405Z,100.00
2023-03-03T02:04:06.137Z,100.00
2023-03-03T02:06:40.749Z,100.00
2023-03-03T02:09:29.189Z,100.00
2023-03-03T02:12:08.188Z,100.00
2023-03-03T02:14:36.156Z,100.00
2023-03-03T02:17:03.979Z,100.00
2023-03-03T02:19:41.767Z,100.00
2023-03-03T02:22:12.715Z,100.00
2023-03-03T02:25:00.441Z,100.00
2023-03-03T02:27:31.662Z,100.00
2023-03-03T02:30:08.040Z,100.00
2023-03-03T02:32:36.656Z,100.00
2023-03-03T02:35:32.153Z,100.00
2023-03-03T02:38:15.261Z,100.00
2023-03-03T02:40:55.877Z,100.00
2023-03-03T02:43:29.380Z,100.00
2023-03-03T02:45:57.082Z,100.00
2023-03-03T02:48:25.584Z,100.00
2023-03-03T02:50:53.638Z,100.00
2023-03-03T02:53:21.195Z,100.00
2023-03-03T02:55:48.674Z,100.00
2023-03-03T02:58:16.226Z,100.00
2023-03-03T03:00:43.751Z,100.00
2023-03-03T03:03:11.226Z,100.00
2023-03-03T03:05:40.162Z,100.00
2023-03-03T03:08:07.764Z,100.00
2023-03-03T03:10:37.005Z,100.00
2023-03-03T03:13:05.541Z,100.00
2023-03-03T03:15:34.041Z,100.00
2023-03-03T03:18:01.618Z,100.00
2023-03-03T03:20:29.402Z,100.00
2023-03-03T03:22:56.842Z,100.00
2023-03-03T03:25:24.451Z,100.00
2023-03-03T03:27:51.942Z,100.00
2023-03-03T03:30:20.822Z,100.00
2023-03-03T03:32:49.181Z,100.00
2023-03-03T03:35:17.557Z,100.00
2023-03-03T03:37:45.853Z,100.00
2023-03-03T03:40:13.796Z,100.00
2023-03-03T03:42:42.033Z,100.00
2023-03-03T03:45:10.267Z,100.00
2023-03-03T03:47:37.808Z,100.00
2023-03-03T03:50:06.875Z,100.00
2023-03-03T03:52:34.444Z,100.00
2023-03-03T03:55:03.370Z,100.00
2023-03-03T03:57:30.884Z,100.00
2023-03-03T03:59:58.332Z,100.00
2023-03-03T04:02:26.239Z,100.00
2023-03-03T04:04:54.057Z,100.00
2023-03-03T04:07:21.647Z,100.00
2023-03-03T04:09:49.639Z,100.00
2023-03-03T04:12:17.283Z,100.00
2023-03-03T04:14:44.762Z,100.00
2023-03-03T04:17:19.843Z,100.00
2023-03-03T04:19:47.733Z,100.00
2023-03-03T04:22:15.409Z,100.00
2023-03-03T04:24:44.774Z,100.00
2023-03-03T04:27:13.397Z,100.00
2023-03-03T04:29:41.214Z,100.00
2023-03-03T04:32:09.173Z,100.00
2023-03-03T04:34:37.139Z,100.00
2023-03-03T04:37:04.891Z,100.00
2023-03-03T04:39:32.486Z,100.00
2023-03-03T04:42:00.058Z,100.00
2023-03-03T04:44:28.137Z,100.00
2023-03-03T04:46:55.679Z,100.00
2023-03-03T04:49:23.225Z,100.00
2023-03-03T04:51:50.748Z,100.00
2023-03-03T04:54:18.219Z,100.00
2023-03-03T04:56:45.770Z,100.00
2023-03-03T04:59:15.357Z,100.00
2023-03-03T05:01:43.473Z,100.00
2023-03-03T05:04:11.051Z,100.00
2023-03-03T05:06:39.333Z,100.00
2023-03-03T05:09:06.787Z,100.00
2023-03-03T05:11:34.254Z,100.00
2023-03-03T05:14:03.080Z,100.00
2023-03-03T05:16:30.730Z,100.00
2023-03-03T05:18:58.728Z,100.00
2023-03-03T05:21:26.297Z,100.00
2023-03-03T05:23:53.789Z,100.00
2023-03-03T05:26:21.198Z,100.00
2023-03-03T05:28:48.820Z,100.00
2023-03-03T05:31:16.255Z,100.00
2023-03-03T05:33:43.812Z,100.00
2023-03-03T05:36:11.292Z,100.00
2023-03-03T05:38:38.777Z,100.00
2023-03-03T05:41:06.228Z,100.00
2023-03-03T05:43:33.832Z,100.00
2023-03-03T05:46:01.480Z,100.00
2023-03-03T05:48:29.489Z,100.00
2023-03-03T05:51:02.233Z,100.00
2023-03-03T05:53:30.847Z,100.00
2023-03-03T05:55:58.389Z,100.00
2023-03-03T05:58:25.870Z,100.00
2023-03-03T06:00:53.352Z,100.00
2023-03-03T06:03:20.966Z,100.00
2023-03-03T06:05:48.938Z,100.00
2023-03-03T06:08:16.533Z,100.00
2023-03-03T06:10:44.018Z,100.00
2023-03-03T06:13:14.010Z,100.00
2023-03-03T06:15:41.562Z,100.00
2023-03-03T06:18:09.558Z,100.00
2023-03-03T06:20:38.744Z,100.00
2023-03-03T06:23:06.891Z,100.00
2023-03-03T06:25:35.987Z,100.00
2023-03-03T06:28:04.305Z,100.00
2023-03-03T06:30:31.929Z,100.00
2023-03-03T06:32:59.406Z,100.00
2023-03-03T06:35:31.535Z,100.00
2023-03-03T06:37:59.055Z,100.00
2023-03-03T06:40:26.550Z,100.00
2023-03-03T06:42:54.013Z,100.00
2023-03-03T06:45:23.024Z,100.00
2023-03-03T06:47:50.442Z,100.00
2023-03-03T06:50:21.380Z,100.00
2023-03-03T06:52:49.465Z,100.00
2023-03-03T06:55:23.935Z,100.00
2023-03-03T06:57:51.517Z,100.00
2023-03-03T07:00:30.720Z,100.00
2023-03-03T07:03:12.309Z,100.00
2023-03-03T07:05:39.906Z,99.40
2023-03-03T07:08:21.505Z,97.67
2023-03-03T07:10:51.022Z,97.07
2023-03-03T07:13:27.780Z,95.72
2023-03-03T07:16:03.986Z,92.95
2023-03-03T07:19:06.449Z,91.65
2023-03-03T07:21:37.957Z,91.74
2023-03-03T07:24:29.405Z,90.18
2023-03-03T07:27:24.087Z,89.58
2023-03-03T07:29:56.340Z,89.74
2023-03-03T07:32:43.676Z,89.29
2023-03-03T07:35:42.761Z,86.29
2023-03-03T07:38:25.348Z,83.75
2023-03-03T07:40:56.385Z,84.40
2023-03-03T07:43:37.345Z,85.31
2023-03-03T07:46:23.787Z,85.51
2023-03-03T07:48:53.383Z,85.45
2023-03-03T07:51:37.041Z,84.10
2023-03-03T07:54:40.532Z,81.47
2023-03-03T07:57:40.856Z,79.92
2023-03-03T08:00:34.067Z,78.27
2023-03-03T08:03:05.171Z,79.25
2023-03-03T08:05:43.166Z,79.66
2023-03-03T08:08:10.962Z,82.38
2023-03-03T08:10:55.397Z,84.07
2023-03-03T08:13:27.597Z,84.55
2023-03-03T08:16:15.561Z,81.17
2023-03-03T08:18:48.520Z,80.30
2023-03-03T08:21:20.892Z,79.96
2023-03-03T08:23:53.380Z,80.63
2023-03-03T08:26:23.185Z,81.57
2023-03-03T08:28:51.604Z,84.05
2023-03-03T08:31:40.270Z,81.48
2023-03-03T08:34:09.205Z,79.53
2023-03-03T08:36:36.830Z,81.00
2023-03-03T08:39:06.079Z,82.46
2023-03-03T08:41:35.078Z,83.59
2023-03-03T08:44:03.292Z,82.82
2023-03-03T08:46:30.854Z,82.77
2023-03-03T08:48:58.390Z,85.03
2023-03-03T08:51:26.550Z,82.95
2023-03-03T08:53:54.179Z,81.57
2023-03-03T08:56:21.870Z,82.27
2023-03-03T08:59:01.655Z,82.70
2023-03-03T09:01:31.737Z,83.55
2023-03-03T09:04:00.194Z,83.09
2023-03-03T09:06:27.747Z,85.02
2023-03-03T09:08:55.296Z,85.47
2023-03-03T09:11:29.170Z,85.93
2023-03-03T09:14:18.173Z,85.96
2023-03-03T09:16:52.957Z,86.29
2023-03-03T09:19:37.352Z,87.64
2023-03-03T09:22:25.275Z,86.12
2023-03-03T09:25:02.572Z,83.63
2023-03-03T09:27:35.995Z,82.65
2023-03-03T09:30:47.469Z,82.75
2023-03-03T09:33:41.281Z,86.06
2023-03-03T09:36:31.768Z,88.78
2023-03-03T09:39:00.882Z,85.52
2023-03-03T09:42:10.566Z,85.15
2023-03-03T09:45:17.972Z,86.08
2023-03-03T09:48:02.899Z,88.99
2023-03-03T09:50:57.247Z,85.72
2023-03-03T09:53:36.440Z,87.26
2023-03-03T09:56:35.368Z,84.51
2023-03-03T09:59:30.654Z,86.40
2023-03-03T10:02:21.806Z,82.34
2023-03-03T10:05:17.483Z,80.04
2023-03-03T10:08:11.540Z,80.43
2023-03-03T10:10:51.408Z,81.10
2023-03-03T10:13:52.225Z,83.03
2023-03-03T10:17:15.554Z,81.43
2023-03-03T10:20:00.425Z,84.06
2023-03-03T10:23:08.653Z,86.12
2023-03-03T10:26:11.133Z,86.14
2023-03-03T10:28:44.576Z,86.34
2023-03-03T10:31:43.175Z,82.71
2023-03-03T10:35:01.239Z,83.16
2023-03-03T10:38:05.251Z,81.16
2023-03-03T10:40:50.860Z,84.36
2023-03-03T10:43:51.320Z,86.76
2023-03-03T10:46:50.876Z,88.83
2023-03-03T10:49:53.787Z,90.13
2023-03-03T10:53:09.435Z,90.63
2023-03-03T10:56:11.120Z,87.87
2023-03-03T10:58:53.680Z,89.02
2023-03-03T11:02:11.500Z,88.16
2023-03-03T11:05:06.540Z,88.82
2023-03-03T11:07:42.874Z,88.52
2023-03-03T11:10:30.809Z,93.14
2023-03-03T11:13:35.352Z,88.88
2023-03-03T11:16:21.873Z,87.10
2023-03-03T11:19:02.381Z,87.34
2023-03-03T11:21:47.402Z,86.50
2023-03-03T11:24:51.194Z,85.66
2023-03-03T11:37:10.254Z,83.28
2023-03-03T11:39:40.321Z,84.30
2023-03-03T11:42:17.222Z,82.50
2023-03-03T11:45:20.633Z,80.92
2023-03-03T11:48:14.002Z,81.11
2023-03-03T11:51:27.577Z,84.17
2023-03-03T11:54:22.563Z,88.14
2023-03-03T12:00:09.574Z,84.54
2023-03-03T12:03:37.732Z,83.72
2023-03-03T12:06:28.825Z,83.16
2023-03-03T12:09:29.404Z,85.50
2023-03-03T12:12:22.191Z,87.06
2023-03-03T12:15:05.118Z,88.14
2023-03-03T12:18:06.112Z,84.28
2023-03-03T12:21:03.881Z,84.95
2023-03-03T12:24:10.896Z,84.43
2023-03-03T12:27:16.822Z,81.92
2023-03-03T12:29:53.701Z,85.89
2023-03-03T12:32:48.078Z,85.21
2023-03-03T12:35:42.559Z,83.55
2023-03-03T12:38:19.006Z,83.50
2023-03-03T12:41:08.744Z,81.82
2023-03-03T12:43:54.903Z,84.39
2023-03-03T12:46:39.035Z,87.02
2023-03-03T12:49:06.677Z,85.03
2023-03-03T12:51:51.852Z,88.03
2023-03-03T12:55:06.351Z,85.28
2023-03-03T12:57:53.056Z,83.18
2023-03-03T13:00:39.836Z,85.19
2023-03-03T13:03:56.038Z,84.88
2023-03-03T13:06:30.587Z,88.83
2023-03-03T13:09:33.632Z,85.32
2023-03-03T13:12:32.168Z,85.00
2023-03-03T13:15:24.810Z,84.24
2023-03-03T13:18:34.589Z,87.82
2023-03-03T13:21:19.513Z,85.15
2023-03-03T13:24:18.436Z,86.62
2023-03-03T13:27:01.471Z,85.49
2023-03-03T13:29:57.511Z,82.95
2023-03-03T13:32:42.780Z,82.55
2023-03-03T13:35:32.694Z,84.61
2023-03-03T13:38:02.089Z,77.98
2023-03-03T13:40:49.811Z,79.58
2023-03-03T13:43:47.168Z,83.20
2023-03-03T13:46:45.724Z,84.69
2023-03-03T13:49:46.505Z,87.30
2023-03-03T13:52:23.820Z,88.45
2023-03-03T13:55:26.597Z,87.52
2023-03-03T13:58:13.075Z,86.97
2023-03-03T14:01:28.714Z,87.26
2023-03-03T14:04:06.751Z,86.33
2023-03-03T14:06:34.440Z,84.29
2023-03-03T14:09:15.995Z,82.93
2023-03-03T14:12:08.570Z,81.78
2023-03-03T14:14:57.980Z,82.92
2023-03-03T14:18:05.553Z,79.90
2023-03-03T14:20:40.326Z,81.38
2023-03-03T14:23:25.620Z,81.32
2023-03-03T14:26:07.506Z,81.92
2023-03-03T14:28:45.284Z,83.40
2023-03-03T14:31:31.651Z,84.37
2023-03-03T14:34:24.750Z,84.98
2023-03-03T14:37:09.149Z,84.68
2023-03-03T14:39:39.882Z,84.55
2023-03-03T14:42:49.802Z,82.71
2023-03-03T14:45:34.758Z,83.32
2023-03-03T14:48:32.850Z,80.23
2023-03-03T14:51:30.011Z,82.56
2023-03-03T14:54:01.937Z,82.67
2023-03-03T14:56:39.618Z,83.54
2023-03-03T14:59:28.572Z,83.29
2023-03-03T15:02:17.769Z,82.18
2023-03-03T15:05:09.733Z,82.54
2023-03-03T15:07:38.899Z,84.13
2023-03-03T15:10:10.034Z,84.79
2023-03-03T15:12:46.629Z,83.30
2023-03-03T15:15:22.765Z,84.48
2023-03-03T15:18:05.358Z,83.95
2023-03-03T15:20:41.807Z,82.95
2023-03-03T15:24:03.132Z,85.26
2023-03-03T15:27:02.808Z,86.09
2023-03-03T15:30:02.505Z,85.96
2023-03-03T15:32:59.932Z,86.10
2023-03-03T15:35:53.367Z,86.59
2023-03-03T15:38:56.678Z,86.80
2023-03-03T15:41:59.519Z,86.11
2023-03-03T15:45:06.474Z,87.10
2023-03-03T15:48:09.867Z,85.09
2023-03-03T15:51:09.303Z,85.59
2023-03-03T15:54:10.378Z,87.04
2023-03-03T15:57:00.389Z,87.03
2023-03-03T16:00:02.151Z,88.36
2023-03-03T16:02:58.936Z,88.24
2023-03-03T16:05:34.130Z,89.29
2023-03-03T16:08:14.021Z,84.62
2023-03-03T16:11:16.256Z,86.26
2023-03-03T16:14:29.669Z,86.40
2023-03-03T16:17:36.154Z,86.55
2023-03-03T16:20:42.791Z,88.40
2023-03-03T16:23:39.140Z,88.55
2023-03-03T16:26:40.949Z,88.86
2023-03-03T16:29:50.017Z,89.71
2023-03-03T16:32:41.487Z,88.93
2023-03-03T16:35:29.270Z,89.20
2023-03-03T16:38:00.280Z,90.31
2023-03-03T16:40:38.405Z,91.91
2023-03-03T16:43:33.762Z,92.75
2023-03-03T16:46:38.517Z,92.27
2023-03-03T16:49:33.421Z,91.44
2023-03-03T16:52:37.224Z,90.91
2023-03-03T16:55:37.802Z,90.24
2023-03-03T16:58:33.958Z,100.00
2023-03-03T17:01:33.055Z,95.72
2023-03-03T17:04:36.256Z,94.83
2023-03-03T17:07:44.751Z,94.95
2023-03-03T17:10:33.714Z,94.78
2023-03-03T17:13:20.932Z,95.08
2023-03-03T17:16:06.672Z,95.81
2023-03-03T17:19:23.437Z,95.59
2023-03-03T17:22:17.457Z,96.01
2023-03-03T17:25:11.708Z,96.08
2023-03-03T17:27:57.545Z,97.37
2023-03-03T17:30:42.192Z,97.87
2023-03-03T17:33:34.922Z,98.25
2023-03-03T17:36:30.190Z,98.59
2023-03-03T17:39:30.977Z,98.55
2023-03-03T17:42:35.180Z,98.95
2023-03-03T17:45:14.466Z,100.00
2023-03-03T17:48:32.025Z,100.00
2023-03-03T17:52:00.105Z,100.00
2023-03-03T17:54:51.946Z,100.00
2023-03-03T17:57:33.820Z,100.00
2023-03-03T18:00:45.631Z,100.00
2023-03-03T18:03:48.425Z,100.00
2023-03-03T18:07:12.822Z,100.00
2023-03-03T18:10:10.137Z,100.00
2023-03-03T18:13:10.401Z,100.00
2023-03-03T18:19:02.744Z,100.00
2023-03-03T18:21:52.709Z,100.00
2023-03-03T18:25:01.175Z,98.41
2023-03-03T18:27:36.540Z,99.01
2023-03-03T18:30:35.412Z,98.40
2023-03-03T18:33:11.957Z,100.00
2023-03-03T18:35:47.591Z,100.00
2023-03-03T18:38:27.212Z,100.00
2023-03-03T18:41:28.919Z,100.00
2023-03-03T18:44:04.669Z,100.00
2023-03-03T18:46:32.098Z,100.00
2023-03-03T18:49:08.812Z,100.00
2023-03-03T18:51:39.094Z,100.00
2023-03-03T18:54:12.182Z,100.00
2023-03-03T18:56:48.271Z,100.00
2023-03-03T19:00:09.797Z,100.00
2023-03-03T19:02:46.331Z,100.00
2023-03-03T19:05:38.833Z,100.00
2023-03-03T19:08:53.748Z,100.00
2023-03-03T19:11:56.158Z,100.00
2023-03-03T19:14:29.448Z,100.00
2023-03-03T19:16:59.539Z,100.00
2023-03-03T19:19:34.376Z,100.00
2023-03-03T19:22:28.413Z,100.00
2023-03-03T19:25:23.949Z,100.00
2023-03-03T19:28:38.715Z,100.00
2023-03-03T19:31:37.693Z,100.00
2023-03-03T19:34:16.946Z,100.00
2023-03-03T19:36:58.152Z,100.00
2023-03-03T19:40:16.107Z,100.00
2023-03-03T19:43:28.934Z,100.00
2023-03-03T19:46:29.994Z,100.00
2023-03-03T19:49:54.302Z,100.00
2023-03-03T20:12:40.498Z,100.00
2023-03-03T20:38:47.108Z,100.00
2023-03-03T20:41:37.958Z,100.00
2023-03-03T20:44:51.958Z,100.00
2023-03-03T21:00:12.577Z,100.00
2023-03-03T21:03:37.460Z,100.00
2023-03-03T21:06:20.508Z,100.00
2023-03-03T21:08:54.345Z,100.00
2023-03-03T21:11:44.989Z,100.00
2023-03-03T21:14:24.185Z,100.00
2023-03-03T21:16:57.205Z,100.00
2023-03-03T21:19:38.934Z,100.00
2023-03-03T21:22:06.546Z,100.00
2023-03-03T21:24:59.313Z,100.00
2023-03-03T21:27:38.370Z,100.00
2023-03-03T21:30:28.900Z,100.00
2023-03-03T21:33:02.376Z,100.00
2023-03-03T21:35:29.923Z,100.00
2023-03-03T21:37:58.382Z,100.00
2023-03-03T21:40:29.317Z,100.00
2023-03-03T21:43:00.692Z,100.00
2023-03-03T21:45:30.211Z,100.00
2023-03-03T21:48:01.347Z,100.00
2023-03-03T21:50:32.803Z,100.00
2023-03-03T21:53:01.581Z,100.00
2023-03-03T21:55:30.308Z,100.00
2023-03-03T21:57:57.875Z,100.00
2023-03-03T22:00:26.210Z,100.00
2023-03-03T22:02:55.343Z,100.00
2023-03-03T22:05:42.795Z,100.00
2023-03-03T22:08:10.397Z,100.00
2023-03-03T22:10:39.267Z,100.00
2023-03-03T22:13:06.810Z,100.00
2023-03-03T22:15:34.320Z,100.00
2023-03-03T22:18:01.799Z,100.00
2023-03-03T22:20:29.332Z,100.00
2023-03-03T22:22:56.865Z,100.00
2023-03-03T22:25:26.769Z,100.00
2023-03-03T22:27:54.262Z,100.00
2023-03-03T22:30:21.745Z,100.00
2023-03-03T22:32:52.342Z,100.00
2023-03-03T22:35:22.404Z,100.00
2023-03-03T22:37:49.976Z,100.00
2023-03-03T22:40:18.799Z,100.00
2023-03-03T22:42:46.235Z,100.00
2023-03-03T22:45:14.426Z,100.00
2023-03-03T22:48:24.415Z,100.00
2023-03-03T22:50:53.237Z,100.00
2023-03-03T22:53:21.387Z,100.00
2023-03-03T22:55:50.094Z,100.00
2023-03-03T22:58:21.498Z,100.00
2023-03-03T23:00:49.482Z,100.00
2023-03-03T23:03:37.305Z,100.00
2023-03-03T23:06:05.373Z,100.00
2023-03-03T23:08:32.910Z,100.00
2023-03-03T23:11:00.383Z,100.00
2023-03-03T23:13:27.947Z,100.00
2023-03-03T23:16:00.141Z,100.00
2023-03-03T23:18:30.765Z,100.00
2023-03-03T23:20:58.943Z,100.00
2023-03-03T23:23:26.430Z,100.00
2023-03-03T23:25:54.025Z,100.00
2023-03-03T23:28:30.419Z,100.00
2023-03-03T23:30:58.096Z,100.00
2023-03-03T23:33:25.529Z,100.00
2023-03-03T23:35:53.160Z,100.00
2023-03-03T23:38:20.784Z,100.00
2023-03-03T23:40:48.227Z,100.00
2023-03-03T23:43:15.913Z,100.00
2023-03-03T23:45:43.650Z,100.00
2023-03-03T23:48:11.792Z,100.00
2023-03-03T23:50:39.586Z,100.00
2023-03-03T23:53:08.273Z,100.00
2023-03-03T23:55:37.619Z,100.00
2023-03-03T23:58:05.717Z,100.00
